ASL10N LJLJ-LYBE
Flight info
| Callsign | ASL10N |
|---|---|
| Flight time | 0h 53m |
| Altitude | 19000 |
| Route | MODRO DCT MAGAM P735 PEROT/N0437F370 P735 RIGMU |
| Aircraft | A319/M-SDE1E2E3FGHIJ1LORVWXY/LB1 |
Departure
| Time | 2026-04-26 18:00 |
|---|---|
| Airport | Ljubljana Jože Pučnik Airport (LJLJ) |
Arrival
| Time | 2026-04-26 18:54 |
|---|---|
| Airport | Belgrade Nikola Tesla Airport (LYBE) |
| Time | Latitude | Longitude | Altitude | Speed | Heading |
|---|---|---|---|---|---|
| 2026-04-26 17:31 | 46.22981 | 14.45515 | 1233 ft | 0 kts | 37° |
| 2026-04-26 17:52 | 46.22966 | 14.45499 | 1245 ft | 4 kts | 32° |
| 2026-04-26 17:52 | 46.22942 | 14.45481 | 1265 ft | 4 kts | 15° |
| 2026-04-26 17:52 | 46.22918 | 14.45481 | 1264 ft | 4 kts | 315° |
| 2026-04-26 17:52 | 46.22912 | 14.45490 | 1266 ft | 0 kts | 308° |
| 2026-04-26 17:56 | 46.22913 | 14.45487 | 1263 ft | 2 kts | 308° |
| 2026-04-26 17:57 | 46.22898 | 14.45378 | 1255 ft | 12 kts | 217° |
| 2026-04-26 17:57 | 46.22863 | 14.45259 | 1256 ft | 17 kts | 300° |
| 2026-04-26 17:57 | 46.22934 | 14.45118 | 1262 ft | 18 kts | 306° |
| 2026-04-26 17:57 | 46.23008 | 14.44973 | 1265 ft | 18 kts | 306° |
| 2026-04-26 17:58 | 46.23226 | 14.44546 | 1272 ft | 19 kts | 307° |
| 2026-04-26 17:59 | 46.23356 | 14.44293 | 1278 ft | 19 kts | 307° |
| 2026-04-26 17:59 | 46.23391 | 14.44129 | 1281 ft | 18 kts | 241° |
| 2026-04-26 17:59 | 46.23267 | 14.44094 | 1282 ft | 21 kts | 161° |
| 2026-04-26 17:59 | 46.23114 | 14.44304 | 1277 ft | 55 kts | 126° |
| 2026-04-26 18:00 | 46.22760 | 14.45000 | 1262 ft | 115 kts | 126° |
| 2026-04-26 18:00 | 46.22195 | 14.46096 | 1457 ft | 142 kts | 124° |
| 2026-04-26 18:00 | 46.21597 | 14.47235 | 2032 ft | 143 kts | 127° |
| 2026-04-26 18:00 | 46.21003 | 14.48388 | 2580 ft | 144 kts | 124° |
| 2026-04-26 18:01 | 46.20407 | 14.49552 | 3136 ft | 144 kts | 124° |
| 2026-04-26 18:01 | 46.19808 | 14.50723 | 3713 ft | 147 kts | 125° |
| 2026-04-26 18:01 | 46.19186 | 14.52009 | 4045 ft | 168 kts | 117° |
| 2026-04-26 18:01 | 46.18834 | 14.53731 | 4325 ft | 192 kts | 105° |
| 2026-04-26 18:02 | 46.18479 | 14.55728 | 4708 ft | 218 kts | 106° |
| 2026-04-26 18:02 | 46.18217 | 14.57180 | 5038 ft | 234 kts | 107° |
| 2026-04-26 18:02 | 46.17630 | 14.60412 | 5878 ft | 259 kts | 107° |
| 2026-04-26 18:02 | 46.17164 | 14.62969 | 6688 ft | 270 kts | 107° |
| 2026-04-26 18:03 | 46.16679 | 14.65645 | 7494 ft | 280 kts | 107° |
| 2026-04-26 18:03 | 46.16181 | 14.68400 | 8330 ft | 288 kts | 105° |
| 2026-04-26 18:03 | 46.15670 | 14.71246 | 9152 ft | 297 kts | 105° |
| 2026-04-26 18:03 | 46.15144 | 14.74166 | 9996 ft | 304 kts | 104° |
| 2026-04-26 18:04 | 46.14596 | 14.77202 | 10480 ft | 324 kts | 104° |
| 2026-04-26 18:04 | 46.14006 | 14.80461 | 10777 ft | 348 kts | 104° |
| 2026-04-26 18:04 | 46.13379 | 14.83920 | 11142 ft | 365 kts | 104° |
| 2026-04-26 18:05 | 46.12062 | 14.91138 | 12553 ft | 376 kts | 104° |
| 2026-04-26 18:05 | 46.11395 | 14.94791 | 13337 ft | 378 kts | 104° |
| 2026-04-26 18:05 | 46.10721 | 14.98467 | 14078 ft | 381 kts | 104° |
| 2026-04-26 18:05 | 46.10041 | 15.02155 | 14770 ft | 382 kts | 104° |
| 2026-04-26 18:06 | 46.09355 | 15.05871 | 15462 ft | 384 kts | 104° |
| 2026-04-26 18:06 | 46.08666 | 15.09599 | 16138 ft | 387 kts | 105° |
| 2026-04-26 18:06 | 46.07970 | 15.13353 | 16812 ft | 389 kts | 105° |
| 2026-04-26 18:06 | 46.07268 | 15.17135 | 17468 ft | 393 kts | 105° |
| 2026-04-26 18:07 | 46.06558 | 15.20947 | 18140 ft | 396 kts | 105° |
| 2026-04-26 18:07 | 46.05841 | 15.24794 | 18735 ft | 400 kts | 105° |
| 2026-04-26 18:07 | 46.05115 | 15.28684 | 19271 ft | 405 kts | 105° |
| 2026-04-26 18:07 | 46.04633 | 15.31271 | 19616 ft | 408 kts | 105° |
| 2026-04-26 18:08 | 46.03640 | 15.36597 | 20071 ft | 413 kts | 105° |
| 2026-04-26 18:08 | 46.02891 | 15.40596 | 20353 ft | 417 kts | 105° |
| 2026-04-26 18:08 | 46.02131 | 15.44639 | 20860 ft | 420 kts | 104° |
| 2026-04-26 18:08 | 46.01360 | 15.48714 | 21362 ft | 424 kts | 105° |
| 2026-04-26 18:09 | 46.00584 | 15.52820 | 21863 ft | 428 kts | 104° |
| 2026-04-26 18:09 | 45.99802 | 15.56971 | 22384 ft | 431 kts | 104° |
| 2026-04-26 18:09 | 45.99126 | 15.60548 | 22796 ft | 434 kts | 105° |
| 2026-04-26 18:09 | 45.98326 | 15.64754 | 23272 ft | 438 kts | 105° |
| 2026-04-26 18:10 | 45.97516 | 15.68995 | 23746 ft | 441 kts | 104° |
| 2026-04-26 18:10 | 45.96881 | 15.73318 | 24132 ft | 444 kts | 99° |
| 2026-04-26 18:10 | 45.96334 | 15.77685 | 24540 ft | 446 kts | 99° |
| 2026-04-26 18:10 | 45.95783 | 15.82090 | 24949 ft | 449 kts | 99° |
| 2026-04-26 18:11 | 45.95227 | 15.86516 | 25348 ft | 451 kts | 99° |
| 2026-04-26 18:11 | 45.94668 | 15.90957 | 25757 ft | 454 kts | 99° |
| 2026-04-26 18:11 | 45.94101 | 15.95435 | 26159 ft | 456 kts | 99° |
| 2026-04-26 18:11 | 45.93529 | 15.99936 | 26561 ft | 459 kts | 99° |
| 2026-04-26 18:12 | 45.92950 | 16.04452 | 26949 ft | 461 kts | 99° |
| 2026-04-26 18:12 | 45.92365 | 16.08994 | 27324 ft | 464 kts | 99° |
| 2026-04-26 18:12 | 45.91774 | 16.13560 | 27696 ft | 466 kts | 99° |
| 2026-04-26 18:12 | 45.91178 | 16.18157 | 28060 ft | 469 kts | 100° |
| 2026-04-26 18:13 | 45.90580 | 16.22761 | 28423 ft | 471 kts | 100° |
| 2026-04-26 18:13 | 45.89978 | 16.27394 | 28778 ft | 473 kts | 100° |
| 2026-04-26 18:13 | 45.89358 | 16.32043 | 29118 ft | 476 kts | 101° |
| 2026-04-26 18:13 | 45.88899 | 16.35131 | 29347 ft | 477 kts | 102° |
| 2026-04-26 18:14 | 45.87862 | 16.41326 | 29925 ft | 477 kts | 104° |
| 2026-04-26 18:14 | 45.87027 | 16.45937 | 30395 ft | 476 kts | 104° |
| 2026-04-26 18:14 | 45.86178 | 16.50522 | 30817 ft | 475 kts | 104° |
| 2026-04-26 18:14 | 45.85336 | 16.55100 | 31236 ft | 475 kts | 104° |
| 2026-04-26 18:15 | 45.84509 | 16.59694 | 31650 ft | 474 kts | 104° |
| 2026-04-26 18:15 | 45.83700 | 16.64273 | 32066 ft | 474 kts | 104° |
| 2026-04-26 18:15 | 45.82902 | 16.68851 | 32491 ft | 473 kts | 104° |
| 2026-04-26 18:15 | 45.82114 | 16.73431 | 32914 ft | 473 kts | 103° |
| 2026-04-26 18:16 | 45.81331 | 16.78006 | 33149 ft | 472 kts | 103° |
| 2026-04-26 18:16 | 45.79798 | 16.86946 | 33181 ft | 454 kts | 104° |
| 2026-04-26 18:16 | 45.79036 | 16.91315 | 33182 ft | 452 kts | 104° |
| 2026-04-26 18:17 | 45.77497 | 17.00036 | 33183 ft | 451 kts | 104° |
| 2026-04-26 18:17 | 45.75954 | 17.08747 | 33185 ft | 451 kts | 104° |
| 2026-04-26 18:18 | 45.74409 | 17.17439 | 33184 ft | 451 kts | 104° |
| 2026-04-26 18:18 | 45.72857 | 17.26139 | 33179 ft | 451 kts | 104° |
| 2026-04-26 18:19 | 45.71304 | 17.34829 | 33174 ft | 450 kts | 104° |
| 2026-04-26 18:19 | 45.69722 | 17.43622 | 33186 ft | 465 kts | 104° |
| 2026-04-26 18:20 | 45.68090 | 17.52663 | 33185 ft | 472 kts | 104° |
| 2026-04-26 18:20 | 45.66795 | 17.59794 | 33187 ft | 473 kts | 104° |
| 2026-04-26 18:21 | 45.64862 | 17.70427 | 33183 ft | 473 kts | 104° |
| 2026-04-26 18:21 | 45.63195 | 17.79505 | 33165 ft | 473 kts | 105° |
| 2026-04-26 18:22 | 45.62354 | 17.84055 | 32759 ft | 473 kts | 104° |
| 2026-04-26 18:22 | 45.61516 | 17.88595 | 32207 ft | 473 kts | 104° |
| 2026-04-26 18:22 | 45.60680 | 17.93131 | 31643 ft | 473 kts | 104° |
| 2026-04-26 18:22 | 45.59837 | 17.97686 | 31069 ft | 474 kts | 104° |
| 2026-04-26 18:23 | 45.58991 | 18.02237 | 30499 ft | 475 kts | 104° |
| 2026-04-26 18:23 | 45.58140 | 18.06798 | 29871 ft | 477 kts | 104° |
| 2026-04-26 18:23 | 45.57282 | 18.11375 | 29307 ft | 478 kts | 104° |
| 2026-04-26 18:23 | 45.56424 | 18.15943 | 28730 ft | 475 kts | 104° |
| 2026-04-26 18:24 | 45.55570 | 18.20485 | 28160 ft | 471 kts | 104° |
| 2026-04-26 18:24 | 45.54722 | 18.24981 | 27617 ft | 467 kts | 104° |
| 2026-04-26 18:24 | 45.53882 | 18.29432 | 27075 ft | 463 kts | 104° |
| 2026-04-26 18:24 | 45.53048 | 18.33852 | 26560 ft | 460 kts | 104° |
| 2026-04-26 18:25 | 45.52217 | 18.38238 | 26049 ft | 456 kts | 104° |
| 2026-04-26 18:25 | 45.51391 | 18.42590 | 25566 ft | 453 kts | 104° |
| 2026-04-26 18:25 | 45.50568 | 18.46908 | 25080 ft | 450 kts | 104° |
| 2026-04-26 18:25 | 45.49747 | 18.51199 | 24604 ft | 447 kts | 104° |
| 2026-04-26 18:26 | 45.48933 | 18.55450 | 24120 ft | 444 kts | 104° |
| 2026-04-26 18:26 | 45.48122 | 18.59685 | 23603 ft | 441 kts | 104° |
| 2026-04-26 18:26 | 45.47318 | 18.63867 | 23087 ft | 437 kts | 104° |
| 2026-04-26 18:26 | 45.46516 | 18.68035 | 22577 ft | 434 kts | 104° |
| 2026-04-26 18:27 | 45.45720 | 18.72165 | 22080 ft | 431 kts | 104° |
| 2026-04-26 18:27 | 45.44928 | 18.76265 | 21537 ft | 427 kts | 104° |
| 2026-04-26 18:27 | 45.44142 | 18.80322 | 21016 ft | 424 kts | 104° |
| 2026-04-26 18:27 | 45.43362 | 18.84347 | 20478 ft | 420 kts | 103° |
| 2026-04-26 18:28 | 45.42584 | 18.88347 | 19945 ft | 417 kts | 103° |
| 2026-04-26 18:28 | 45.41808 | 18.92309 | 19415 ft | 414 kts | 103° |
| 2026-04-26 18:28 | 45.41036 | 18.96240 | 18884 ft | 411 kts | 103° |
| 2026-04-26 18:28 | 45.40330 | 19.00152 | 18332 ft | 405 kts | 97° |
| 2026-04-26 18:29 | 45.40141 | 19.04102 | 17946 ft | 397 kts | 85° |
| 2026-04-26 18:29 | 45.40262 | 19.08030 | 17805 ft | 398 kts | 84° |
| 2026-04-26 18:29 | 45.40363 | 19.11956 | 17585 ft | 397 kts | 85° |
| 2026-04-26 18:29 | 45.40397 | 19.15895 | 17335 ft | 399 kts | 91° |
| 2026-04-26 18:30 | 45.39799 | 19.19749 | 17081 ft | 403 kts | 109° |
| 2026-04-26 18:30 | 45.38499 | 19.23287 | 16828 ft | 404 kts | 118° |
| 2026-04-26 18:30 | 45.37082 | 19.26730 | 16568 ft | 403 kts | 118° |
| 2026-04-26 18:30 | 45.35657 | 19.30163 | 16314 ft | 402 kts | 119° |
| 2026-04-26 18:31 | 45.34235 | 19.33582 | 16065 ft | 401 kts | 119° |
| 2026-04-26 18:31 | 45.32814 | 19.36988 | 15818 ft | 400 kts | 119° |
| 2026-04-26 18:31 | 45.31394 | 19.40390 | 15571 ft | 399 kts | 119° |
| 2026-04-26 18:31 | 45.29984 | 19.43779 | 15333 ft | 397 kts | 118° |
| 2026-04-26 18:32 | 45.28600 | 19.47103 | 15085 ft | 385 kts | 118° |
| 2026-04-26 18:32 | 45.27256 | 19.50321 | 14839 ft | 373 kts | 118° |
| 2026-04-26 18:32 | 45.25951 | 19.53444 | 14593 ft | 363 kts | 118° |
| 2026-04-26 18:32 | 45.24670 | 19.56505 | 14363 ft | 360 kts | 118° |
| 2026-04-26 18:33 | 45.23398 | 19.59546 | 14127 ft | 358 kts | 118° |
| 2026-04-26 18:33 | 45.22126 | 19.62585 | 13887 ft | 358 kts | 118° |
| 2026-04-26 18:33 | 45.20858 | 19.65614 | 13617 ft | 356 kts | 118° |
| 2026-04-26 18:33 | 45.19595 | 19.68626 | 13361 ft | 355 kts | 118° |
| 2026-04-26 18:34 | 45.18335 | 19.71622 | 13088 ft | 353 kts | 118° |
| 2026-04-26 18:34 | 45.17079 | 19.74603 | 12826 ft | 351 kts | 119° |
| 2026-04-26 18:34 | 45.15847 | 19.77528 | 12578 ft | 350 kts | 119° |
| 2026-04-26 18:34 | 45.14586 | 19.80518 | 12314 ft | 349 kts | 119° |
| 2026-04-26 18:35 | 45.13358 | 19.83426 | 12063 ft | 347 kts | 119° |
| 2026-04-26 18:35 | 45.12123 | 19.86352 | 11801 ft | 345 kts | 119° |
| 2026-04-26 18:35 | 45.10894 | 19.89259 | 11470 ft | 342 kts | 119° |
| 2026-04-26 18:35 | 45.09676 | 19.92138 | 11210 ft | 341 kts | 119° |
| 2026-04-26 18:36 | 45.08459 | 19.95018 | 10956 ft | 341 kts | 119° |
| 2026-04-26 18:36 | 45.07242 | 19.97890 | 10710 ft | 340 kts | 120° |
| 2026-04-26 18:36 | 45.06028 | 20.00748 | 10476 ft | 338 kts | 120° |
| 2026-04-26 18:36 | 45.04817 | 20.03594 | 10221 ft | 336 kts | 120° |
| 2026-04-26 18:37 | 45.03621 | 20.06405 | 9907 ft | 330 kts | 120° |
| 2026-04-26 18:37 | 45.02456 | 20.09140 | 9773 ft | 318 kts | 120° |
| 2026-04-26 18:37 | 45.01329 | 20.11787 | 9514 ft | 312 kts | 119° |
| 2026-04-26 18:37 | 45.00216 | 20.14400 | 9329 ft | 310 kts | 119° |
| 2026-04-26 18:38 | 44.99100 | 20.17009 | 9209 ft | 311 kts | 119° |
| 2026-04-26 18:38 | 44.97980 | 20.19623 | 9088 ft | 310 kts | 119° |
| 2026-04-26 18:38 | 44.96866 | 20.22230 | 8949 ft | 310 kts | 119° |
| 2026-04-26 18:38 | 44.95754 | 20.24831 | 8828 ft | 309 kts | 119° |
| 2026-04-26 18:39 | 44.94643 | 20.27422 | 8693 ft | 308 kts | 119° |
| 2026-04-26 18:39 | 44.93533 | 20.30011 | 8590 ft | 308 kts | 119° |
| 2026-04-26 18:39 | 44.92425 | 20.32592 | 8464 ft | 308 kts | 119° |
| 2026-04-26 18:39 | 44.91315 | 20.35172 | 8340 ft | 307 kts | 119° |
| 2026-04-26 18:40 | 44.90208 | 20.37742 | 8211 ft | 306 kts | 119° |
| 2026-04-26 18:40 | 44.89105 | 20.40308 | 8087 ft | 305 kts | 119° |
| 2026-04-26 18:40 | 44.88364 | 20.42032 | 8006 ft | 305 kts | 119° |
| 2026-04-26 18:40 | 44.87265 | 20.44586 | 7874 ft | 304 kts | 119° |
| 2026-04-26 18:41 | 44.86165 | 20.47135 | 7752 ft | 304 kts | 119° |
| 2026-04-26 18:41 | 44.85069 | 20.49674 | 7627 ft | 303 kts | 119° |
| 2026-04-26 18:41 | 44.83973 | 20.52206 | 7475 ft | 301 kts | 119° |
| 2026-04-26 18:41 | 44.82882 | 20.54719 | 7129 ft | 300 kts | 119° |
| 2026-04-26 18:42 | 44.81798 | 20.57215 | 6814 ft | 298 kts | 119° |
| 2026-04-26 18:42 | 44.80725 | 20.59694 | 6509 ft | 296 kts | 119° |
| 2026-04-26 18:42 | 44.79660 | 20.62168 | 6278 ft | 295 kts | 119° |
| 2026-04-26 18:42 | 44.78616 | 20.64606 | 6150 ft | 294 kts | 119° |
| 2026-04-26 18:43 | 44.77553 | 20.67099 | 6018 ft | 293 kts | 119° |
| 2026-04-26 18:43 | 44.76523 | 20.69523 | 5892 ft | 292 kts | 118° |
| 2026-04-26 18:43 | 44.75482 | 20.71970 | 5748 ft | 291 kts | 119° |
| 2026-04-26 18:43 | 44.74447 | 20.74405 | 5632 ft | 290 kts | 119° |
| 2026-04-26 18:44 | 44.73418 | 20.76830 | 5492 ft | 284 kts | 119° |
| 2026-04-26 18:44 | 44.72419 | 20.79177 | 5367 ft | 275 kts | 119° |
| 2026-04-26 18:44 | 44.71443 | 20.81465 | 5252 ft | 279 kts | 119° |
| 2026-04-26 18:44 | 44.70297 | 20.83712 | 5112 ft | 286 kts | 136° |
| 2026-04-26 18:45 | 44.68589 | 20.85114 | 5003 ft | 285 kts | 166° |
| 2026-04-26 18:45 | 44.66645 | 20.85254 | 5009 ft | 280 kts | 194° |
| 2026-04-26 18:45 | 44.64910 | 20.84147 | 5010 ft | 272 kts | 224° |
| 2026-04-26 18:45 | 44.63797 | 20.82095 | 5013 ft | 262 kts | 252° |
| 2026-04-26 18:46 | 44.63505 | 20.79639 | 5015 ft | 255 kts | 273° |
| 2026-04-26 18:46 | 44.63537 | 20.77150 | 5013 ft | 255 kts | 276° |
| 2026-04-26 18:46 | 44.63597 | 20.74669 | 5017 ft | 254 kts | 276° |
| 2026-04-26 18:46 | 44.63704 | 20.72239 | 5011 ft | 241 kts | 284° |
| 2026-04-26 18:47 | 44.64297 | 20.70162 | 5017 ft | 222 kts | 304° |
| 2026-04-26 18:47 | 44.65100 | 20.68382 | 5021 ft | 216 kts | 304° |
| 2026-04-26 18:47 | 44.65930 | 20.66546 | 5024 ft | 226 kts | 304° |
| 2026-04-26 18:47 | 44.66769 | 20.64677 | 5027 ft | 227 kts | 304° |
| 2026-04-26 18:48 | 44.67613 | 20.62799 | 5016 ft | 228 kts | 304° |
| 2026-04-26 18:48 | 44.68459 | 20.60911 | 4760 ft | 227 kts | 304° |
| 2026-04-26 18:48 | 44.69297 | 20.59042 | 4502 ft | 224 kts | 304° |
| 2026-04-26 18:48 | 44.70103 | 20.57242 | 4367 ft | 211 kts | 304° |
| 2026-04-26 18:49 | 44.70871 | 20.55528 | 4148 ft | 203 kts | 304° |
| 2026-04-26 18:49 | 44.71616 | 20.53866 | 3896 ft | 199 kts | 305° |
| 2026-04-26 18:49 | 44.72342 | 20.52243 | 3634 ft | 194 kts | 306° |
| 2026-04-26 18:49 | 44.73050 | 20.50658 | 3420 ft | 188 kts | 305° |
| 2026-04-26 18:50 | 44.73730 | 20.49135 | 3147 ft | 181 kts | 306° |
| 2026-04-26 18:50 | 44.74388 | 20.47662 | 2895 ft | 175 kts | 306° |
| 2026-04-26 18:50 | 44.75025 | 20.46236 | 2663 ft | 169 kts | 307° |
| 2026-04-26 18:50 | 44.75640 | 20.44857 | 2441 ft | 163 kts | 307° |
| 2026-04-26 18:51 | 44.76219 | 20.43556 | 2228 ft | 150 kts | 307° |
| 2026-04-26 18:51 | 44.76733 | 20.42400 | 2042 ft | 131 kts | 307° |
| 2026-04-26 18:51 | 44.77204 | 20.41344 | 1871 ft | 125 kts | 308° |
| 2026-04-26 18:51 | 44.77662 | 20.40320 | 1709 ft | 122 kts | 308° |
| 2026-04-26 18:52 | 44.78110 | 20.39316 | 1544 ft | 121 kts | 307° |
| 2026-04-26 18:52 | 44.78556 | 20.38315 | 1374 ft | 120 kts | 307° |
| 2026-04-26 18:52 | 44.79000 | 20.37318 | 1206 ft | 120 kts | 307° |
| 2026-04-26 18:52 | 44.79443 | 20.36322 | 1045 ft | 120 kts | 305° |
| 2026-04-26 18:53 | 44.79888 | 20.35321 | 877 ft | 121 kts | 304° |
| 2026-04-26 18:53 | 44.80336 | 20.34314 | 718 ft | 121 kts | 304° |
| 2026-04-26 18:53 | 44.80776 | 20.33310 | 512 ft | 119 kts | 305° |
| 2026-04-26 18:53 | 44.81216 | 20.32325 | 356 ft | 119 kts | 304° |
| 2026-04-26 18:54 | 44.81623 | 20.31412 | 304 ft | 93 kts | 302° |
| 2026-04-26 18:54 | 44.81875 | 20.30843 | 307 ft | 44 kts | 302° |
| 2026-04-26 18:54 | 44.82025 | 20.30507 | 305 ft | 36 kts | 302° |
| 2026-04-26 18:54 | 44.82142 | 20.30230 | 304 ft | 30 kts | 297° |
| 2026-04-26 18:55 | 44.82168 | 20.30015 | 308 ft | 21 kts | 270° |
| 2026-04-26 18:55 | 44.82170 | 20.29830 | 307 ft | 16 kts | 270° |
| 2026-04-26 18:55 | 44.82154 | 20.29701 | 308 ft | 14 kts | 230° |
| 2026-04-26 18:55 | 44.82111 | 20.29602 | 308 ft | 12 kts | 296° |
| 2026-04-26 18:56 | 44.82085 | 20.29507 | 307 ft | 13 kts | 245° |
| 2026-04-26 18:56 | 44.82116 | 20.29397 | 309 ft | 11 kts | 302° |
| 2026-04-26 18:56 | 44.82160 | 20.29291 | 308 ft | 8 kts | 284° |
| 2026-04-26 18:56 | 44.82131 | 20.29254 | 307 ft | 6 kts | 196° |
| 2026-04-26 18:57 | 44.82102 | 20.29232 | 307 ft | 2 kts | 212° |
| 2026-04-26 18:57 | 44.82092 | 20.29224 | 307 ft | 2 kts | 212° |
| 2026-04-26 18:57 | 44.82088 | 20.29220 | 307 ft | 0 kts | 212° |